sensor_id;sensor_type;location;lat;lon;timestamp;P1;durP1;ratioP1;P2;durP2;ratioP2
15500;SDS011;7852;52.228;5.990;2023-04-15T00:03:36;9.2;;;6.3;;
15500;SDS011;7852;52.228;5.990;2023-04-15T00:03:36;10.3;;;6.9;;
15500;SDS011;7852;52.228;5.990;2023-04-15T00:03:41;10.9;;;6.3;;
15500;SDS011;7852;52.228;5.990;2023-04-15T00:04:41;8.9;;;6;;
15500;SDS011;7852;52.228;5.990;2023-04-15T00:05:41;10.2;;;6.6;;
15500;SDS011;7852;52.228;5.990;2023-04-15T00:06:41;7.5;;;6.3;;
15500;SDS011;7852;52.228;5.990;2023-04-15T00:07:41;10.4;;;7.1;;
15500;SDS011;7852;52.228;5.990;2023-04-15T00:08:41;10.9;;;6.7;;
15500;SDS011;7852;52.228;5.990;2023-04-15T00:09:41;8.2;;;6.4;;
15500;SDS011;7852;52.228;5.990;2023-04-15T00:10:41;11.3;;;7;;
15500;SDS011;7852;52.228;5.990;2023-04-15T00:11:41;10.9;;;6.6;;
15500;SDS011;7852;52.228;5.990;2023-04-15T00:12:41;11.4;;;7.6;;
15500;SDS011;7852;52.228;5.990;2023-04-15T00:13:41;9.6;;;7.4;;
15500;SDS011;7852;52.228;5.990;2023-04-15T00:14:41;10.2;;;7.3;;
15500;SDS011;7852;52.228;5.990;2023-04-15T00:15:41;8.9;;;6.8;;
15500;SDS011;7852;52.228;5.990;2023-04-15T00:16:41;10.9;;;6.3;;
15500;SDS011;7852;52.228;5.990;2023-04-15T00:17:41;8.9;;;6.8;;
15500;SDS011;7852;52.228;5.990;2023-04-15T00:18:41;10.3;;;6.9;;
15500;SDS011;7852;52.228;5.990;2023-04-15T00:19:41;8.5;;;6.5;;
15500;SDS011;7852;52.228;5.990;2023-04-15T00:20:41;8.8;;;6.6;;
15500;SDS011;7852;52.228;5.990;2023-04-15T00:21:41;11.1;;;6.9;;
15500;SDS011;7852;52.228;5.990;2023-04-15T00:22:41;8.1;;;6.5;;
15500;SDS011;7852;52.228;5.990;2023-04-15T00:23:41;10.9;;;7.1;;
15500;SDS011;7852;52.228;5.990;2023-04-15T00:24:41;11.5;;;7.4;;
15500;SDS011;7852;52.228;5.990;2023-04-15T00:25:41;9.3;;;7;;
15500;SDS011;7852;52.228;5.990;2023-04-15T00:26:41;9.3;;;7.7;;
15500;SDS011;7852;52.228;5.990;2023-04-15T00:27:41;8.3;;;6.7;;
15500;SDS011;7852;52.228;5.990;2023-04-15T00:28:41;8.1;;;5.8;;
15500;SDS011;7852;52.228;5.990;2023-04-15T00:29:41;10.9;;;6.3;;
15500;SDS011;7852;52.228;5.990;2023-04-15T00:30:41;11.2;;;6.5;;
15500;SDS011;7852;52.228;5.990;2023-04-15T00:31:41;8.1;;;6.2;;
15500;SDS011;7852;52.228;5.990;2023-04-15T00:32:41;9.8;;;6.2;;
15500;SDS011;7852;52.228;5.990;2023-04-15T00:33:41;9.7;;;6.2;;
15500;SDS011;7852;52.228;5.990;2023-04-15T00:34:41;7.6;;;5.9;;
15500;SDS011;7852;52.228;5.990;2023-04-15T00:35:41;10.9;;;5.9;;
15500;SDS011;7852;52.228;5.990;2023-04-15T00:36:41;9.3;;;6.5;;
15500;SDS011;7852;52.228;5.990;2023-04-15T00:37:41;12.8;;;6.2;;
15500;SDS011;7852;52.228;5.990;2023-04-15T00:38:41;7.7;;;5.8;;
15500;SDS011;7852;52.228;5.990;2023-04-15T00:39:41;9.6;;;6;;
15500;SDS011;7852;52.228;5.990;2023-04-15T00:40:41;7.1;;;5.7;;
15500;SDS011;7852;52.228;5.990;2023-04-15T00:41:41;8;;;5.8;;
15500;SDS011;7852;52.228;5.990;2023-04-15T00:42:41;9.6;;;6.4;;
15500;SDS011;7852;52.228;5.990;2023-04-15T00:43:41;9.2;;;5.8;;
15500;SDS011;7852;52.228;5.990;2023-04-15T00:44:41;10.5;;;6.3;;
15500;SDS011;7852;52.228;5.990;2023-04-15T00:45:41;7.4;;;5.8;;
15500;SDS011;7852;52.228;5.990;2023-04-15T00:46:41;7.5;;;5.7;;
15500;SDS011;7852;52.228;5.990;2023-04-15T00:47:41;10.7;;;6.5;;
15500;SDS011;7852;52.228;5.990;2023-04-15T00:48:41;8.7;;;5.9;;
15500;SDS011;7852;52.228;5.990;2023-04-15T00:49:41;9;;;6.7;;
15500;SDS011;7852;52.228;5.990;2023-04-15T00:50:41;10.9;;;7.1;;
15500;SDS011;7852;52.228;5.990;2023-04-15T00:51:41;6.9;;;6.1;;
15500;SDS011;7852;52.228;5.990;2023-04-15T00:52:41;8.6;;;6.5;;
15500;SDS011;7852;52.228;5.990;2023-04-15T00:53:41;7.1;;;5.9;;
15500;SDS011;7852;52.228;5.990;2023-04-15T00:54:41;11.1;;;6.5;;
15500;SDS011;7852;52.228;5.990;2023-04-15T00:55:41;7.4;;;5.6;;
15500;SDS011;7852;52.228;5.990;2023-04-15T00:56:41;6.8;;;5.3;;
15500;SDS011;7852;52.228;5.990;2023-04-15T00:57:41;10.9;;;6;;
15500;SDS011;7852;52.228;5.990;2023-04-15T00:58:41;9.9;;;5.8;;
15500;SDS011;7852;52.228;5.990;2023-04-15T00:59:41;7.4;;;5.4;;
15500;SDS011;7852;52.228;5.990;2023-04-15T01:00:41;8.3;;;5.9;;
15500;SDS011;7852;52.228;5.990;2023-04-15T01:01:41;9.9;;;5.5;;
15500;SDS011;7852;52.228;5.990;2023-04-15T01:02:41;10.2;;;6;;
15500;SDS011;7852;52.228;5.990;2023-04-15T01:03:41;7.4;;;5.9;;
15500;SDS011;7852;52.228;5.990;2023-04-15T01:04:41;9;;;5.4;;
15500;SDS011;7852;52.228;5.990;2023-04-15T01:05:41;6.9;;;5.4;;
15500;SDS011;7852;52.228;5.990;2023-04-15T01:06:41;7.3;;;5.2;;
15500;SDS011;7852;52.228;5.990;2023-04-15T01:07:41;11.6;;;6.3;;
15500;SDS011;7852;52.228;5.990;2023-04-15T01:08:41;7.6;;;5.6;;
15500;SDS011;7852;52.228;5.990;2023-04-15T01:09:41;8.2;;;5.5;;
15500;SDS011;7852;52.228;5.990;2023-04-15T01:10:41;8.7;;;5.9;;
15500;SDS011;7852;52.228;5.990;2023-04-15T01:11:41;7.7;;;5.8;;
15500;SDS011;7852;52.228;5.990;2023-04-15T01:12:41;9.5;;;5.9;;
15500;SDS011;7852;52.228;5.990;2023-04-15T01:13:41;10.5;;;5.2;;
15500;SDS011;7852;52.228;5.990;2023-04-15T01:14:41;11.7;;;6;;
15500;SDS011;7852;52.228;5.990;2023-04-15T01:15:41;13.7;;;6.6;;
15500;SDS011;7852;52.228;5.990;2023-04-15T01:16:41;6.7;;;5.4;;
15500;SDS011;7852;52.228;5.990;2023-04-15T01:17:41;10.3;;;5.9;;
15500;SDS011;7852;52.228;5.990;2023-04-15T01:18:41;6.8;;;5.4;;
15500;SDS011;7852;52.228;5.990;2023-04-15T01:19:41;9.4;;;5.5;;
15500;SDS011;7852;52.228;5.990;2023-04-15T01:20:41;6.6;;;4.8;;
15500;SDS011;7852;52.228;5.990;2023-04-15T01:21:41;7;;;5.3;;
15500;SDS011;7852;52.228;5.990;2023-04-15T01:22:41;7.5;;;4.8;;
15500;SDS011;7852;52.228;5.990;2023-04-15T01:23:41;10.3;;;5.6;;
15500;SDS011;7852;52.228;5.990;2023-04-15T01:24:41;7.4;;;4.9;;
15500;SDS011;7852;52.228;5.990;2023-04-15T01:25:41;5.6;;;5;;
15500;SDS011;7852;52.228;5.990;2023-04-15T01:26:41;11.7;;;6;;
15500;SDS011;7852;52.228;5.990;2023-04-15T01:27:41;9.3;;;5.4;;
15500;SDS011;7852;52.228;5.990;2023-04-15T01:28:41;7.1;;;5.4;;
15500;SDS011;7852;52.228;5.990;2023-04-15T01:29:41;8.9;;;5.7;;
15500;SDS011;7852;52.228;5.990;2023-04-15T01:30:41;7.3;;;5.1;;
15500;SDS011;7852;52.228;5.990;2023-04-15T01:31:47;8.5;;;6.1;;
15500;SDS011;7852;52.228;5.990;2023-04-15T01:32:42;8.3;;;5.5;;
15500;SDS011;7852;52.228;5.990;2023-04-15T01:33:41;9.2;;;6.2;;
15500;SDS011;7852;52.228;5.990;2023-04-15T01:34:41;6;;;4.9;;
15500;SDS011;7852;52.228;5.990;2023-04-15T01:35:41;10.4;;;5.5;;
15500;SDS011;7852;52.228;5.990;2023-04-15T01:36:41;7.6;;;5.3;;
15500;SDS011;7852;52.228;5.990;2023-04-15T01:37:41;7;;;5.2;;
15500;SDS011;7852;52.228;5.990;2023-04-15T01:38:41;6.9;;;5.2;;
15500;SDS011;7852;52.228;5.990;2023-04-15T01:39:41;5.6;;;4.4;;
15500;SDS011;7852;52.228;5.990;2023-04-15T01:40:41;6.2;;;4.8;;
15500;SDS011;7852;52.228;5.990;2023-04-15T01:41:41;6.9;;;5.5;;
15500;SDS011;7852;52.228;5.990;2023-04-15T01:42:41;10.2;;;5.2;;
15500;SDS011;7852;52.228;5.990;2023-04-15T01:43:41;7.2;;;5.6;;
15500;SDS011;7852;52.228;5.990;2023-04-15T01:44:41;6.1;;;5.3;;
15500;SDS011;7852;52.228;5.990;2023-04-15T01:45:41;12.2;;;5.7;;
15500;SDS011;7852;52.228;5.990;2023-04-15T01:46:41;7.9;;;4.5;;
15500;SDS011;7852;52.228;5.990;2023-04-15T01:47:41;7.2;;;5;;
15500;SDS011;7852;52.228;5.990;2023-04-15T01:48:41;6.9;;;4.9;;
15500;SDS011;7852;52.228;5.990;2023-04-15T01:49:41;6.9;;;5.5;;
15500;SDS011;7852;52.228;5.990;2023-04-15T01:50:41;6.4;;;4.7;;
15500;SDS011;7852;52.228;5.990;2023-04-15T01:51:41;6.3;;;5;;
15500;SDS011;7852;52.228;5.990;2023-04-15T01:52:41;9;;;4.9;;
15500;SDS011;7852;52.228;5.990;2023-04-15T01:53:41;11.4;;;5.6;;
15500;SDS011;7852;52.228;5.990;2023-04-15T01:54:41;8.3;;;4.7;;
15500;SDS011;7852;52.228;5.990;2023-04-15T01:55:41;7.5;;;5.4;;
15500;SDS011;7852;52.228;5.990;2023-04-15T01:56:41;5.5;;;4.1;;
15500;SDS011;7852;52.228;5.990;2023-04-15T01:57:41;8.3;;;5.3;;
15500;SDS011;7852;52.228;5.990;2023-04-15T01:58:41;6.5;;;4.8;;
15500;SDS011;7852;52.228;5.990;2023-04-15T01:59:41;9.2;;;5;;
15500;SDS011;7852;52.228;5.990;2023-04-15T02:00:41;5.4;;;4.8;;
15500;SDS011;7852;52.228;5.990;2023-04-15T02:01:41;6.1;;;4.8;;
15500;SDS011;7852;52.228;5.990;2023-04-15T02:02:41;6.3;;;4.5;;
15500;SDS011;7852;52.228;5.990;2023-04-15T02:03:41;5.3;;;4.1;;
15500;SDS011;7852;52.228;5.990;2023-04-15T02:04:41;6.4;;;4.8;;
15500;SDS011;7852;52.228;5.990;2023-04-15T02:05:41;5.6;;;4.7;;
15500;SDS011;7852;52.228;5.990;2023-04-15T02:06:41;6.4;;;4.7;;
15500;SDS011;7852;52.228;5.990;2023-04-15T02:07:41;6.9;;;4.8;;
15500;SDS011;7852;52.228;5.990;2023-04-15T02:08:41;8.5;;;4.5;;
15500;SDS011;7852;52.228;5.990;2023-04-15T02:09:41;6.3;;;4.4;;
15500;SDS011;7852;52.228;5.990;2023-04-15T02:10:41;5.8;;;4.6;;
15500;SDS011;7852;52.228;5.990;2023-04-15T02:11:41;9.3;;;5.2;;
15500;SDS011;7852;52.228;5.990;2023-04-15T02:12:41;7.7;;;5.1;;
15500;SDS011;7852;52.228;5.990;2023-04-15T02:13:41;9.3;;;5.9;;
15500;SDS011;7852;52.228;5.990;2023-04-15T02:14:41;5.6;;;4.4;;
15500;SDS011;7852;52.228;5.990;2023-04-15T02:15:45;5;;;4;;
15500;SDS011;7852;52.228;5.990;2023-04-15T02:16:41;8.5;;;4.8;;
15500;SDS011;7852;52.228;5.990;2023-04-15T02:17:41;5.9;;;4.6;;
15500;SDS011;7852;52.228;5.990;2023-04-15T02:18:41;7.9;;;5.1;;
15500;SDS011;7852;52.228;5.990;2023-04-15T02:19:41;8.6;;;4.4;;
15500;SDS011;7852;52.228;5.990;2023-04-15T02:20:41;8.3;;;4.7;;
15500;SDS011;7852;52.228;5.990;2023-04-15T02:21:41;7.8;;;5.3;;
15500;SDS011;7852;52.228;5.990;2023-04-15T02:22:41;11.7;;;6.1;;
15500;SDS011;7852;52.228;5.990;2023-04-15T02:23:41;7.2;;;5.8;;
15500;SDS011;7852;52.228;5.990;2023-04-15T02:24:41;8.5;;;5.5;;
15500;SDS011;7852;52.228;5.990;2023-04-15T02:25:41;6.9;;;4.8;;
15500;SDS011;7852;52.228;5.990;2023-04-15T02:26:41;8.2;;;4.8;;
15500;SDS011;7852;52.228;5.990;2023-04-15T02:27:41;7.4;;;5.1;;
15500;SDS011;7852;52.228;5.990;2023-04-15T02:28:41;7.6;;;4.7;;
15500;SDS011;7852;52.228;5.990;2023-04-15T02:29:41;6.3;;;5;;
15500;SDS011;7852;52.228;5.990;2023-04-15T02:30:41;8.4;;;5.3;;
15500;SDS011;7852;52.228;5.990;2023-04-15T02:31:41;8.9;;;5.1;;
15500;SDS011;7852;52.228;5.990;2023-04-15T02:32:41;8.3;;;5;;
15500;SDS011;7852;52.228;5.990;2023-04-15T02:33:41;11.9;;;4.7;;
15500;SDS011;7852;52.228;5.990;2023-04-15T02:34:42;5.3;;;4.8;;
15500;SDS011;7852;52.228;5.990;2023-04-15T02:35:41;8.1;;;4.6;;
15500;SDS011;7852;52.228;5.990;2023-04-15T02:36:41;6.9;;;4.5;;
15500;SDS011;7852;52.228;5.990;2023-04-15T02:37:41;6.9;;;4.4;;
15500;SDS011;7852;52.228;5.990;2023-04-15T02:38:41;7.4;;;4.9;;
15500;SDS011;7852;52.228;5.990;2023-04-15T02:39:41;6.5;;;4.3;;
15500;SDS011;7852;52.228;5.990;2023-04-15T02:40:41;7.6;;;4.6;;
15500;SDS011;7852;52.228;5.990;2023-04-15T02:41:41;6.7;;;4.5;;
15500;SDS011;7852;52.228;5.990;2023-04-15T02:42:41;5.2;;;4.1;;
15500;SDS011;7852;52.228;5.990;2023-04-15T02:43:41;6.9;;;5;;
15500;SDS011;7852;52.228;5.990;2023-04-15T02:44:41;5.3;;;4.6;;
15500;SDS011;7852;52.228;5.990;2023-04-15T02:45:41;8.2;;;4.5;;
15500;SDS011;7852;52.228;5.990;2023-04-15T02:46:41;6.1;;;4.5;;
15500;SDS011;7852;52.228;5.990;2023-04-15T02:47:41;6.7;;;3.7;;
15500;SDS011;7852;52.228;5.990;2023-04-15T02:48:41;6.2;;;4.3;;
15500;SDS011;7852;52.228;5.990;2023-04-15T02:49:41;8.4;;;4.7;;
15500;SDS011;7852;52.228;5.990;2023-04-15T02:50:41;6.2;;;4.6;;
15500;SDS011;7852;52.228;5.990;2023-04-15T02:51:41;6.2;;;4.3;;
15500;SDS011;7852;52.228;5.990;2023-04-15T02:52:41;6.7;;;4.9;;
15500;SDS011;7852;52.228;5.990;2023-04-15T02:53:41;10.7;;;5;;
15500;SDS011;7852;52.228;5.990;2023-04-15T02:54:41;5.8;;;4.7;;
15500;SDS011;7852;52.228;5.990;2023-04-15T02:55:41;5.3;;;4.3;;
15500;SDS011;7852;52.228;5.990;2023-04-15T02:56:41;5.8;;;4.5;;
15500;SDS011;7852;52.228;5.990;2023-04-15T02:57:41;5;;;4.1;;
15500;SDS011;7852;52.228;5.990;2023-04-15T02:58:42;7.5;;;4.2;;
15500;SDS011;7852;52.228;5.990;2023-04-15T02:59:41;7.1;;;4.4;;
15500;SDS011;7852;52.228;5.990;2023-04-15T03:00:41;6.4;;;4.4;;
15500;SDS011;7852;52.228;5.990;2023-04-15T03:01:41;6;;;4.9;;
15500;SDS011;7852;52.228;5.990;2023-04-15T03:02:41;5.5;;;4.7;;
15500;SDS011;7852;52.228;5.990;2023-04-15T03:03:41;10.3;;;4;;
15500;SDS011;7852;52.228;5.990;2023-04-15T03:04:41;5.4;;;4.2;;
15500;SDS011;7852;52.228;5.990;2023-04-15T03:05:41;4.5;;;3.9;;
15500;SDS011;7852;52.228;5.990;2023-04-15T03:06:41;7;;;4.2;;
15500;SDS011;7852;52.228;5.990;2023-04-15T03:07:41;6.4;;;4.4;;
15500;SDS011;7852;52.228;5.990;2023-04-15T03:08:41;7.6;;;4.8;;
15500;SDS011;7852;52.228;5.990;2023-04-15T03:09:41;4.7;;;3.9;;
15500;SDS011;7852;52.228;5.990;2023-04-15T03:10:41;5.3;;;3.9;;
15500;SDS011;7852;52.228;5.990;2023-04-15T03:11:41;6.9;;;4.8;;
15500;SDS011;7852;52.228;5.990;2023-04-15T03:12:41;8.8;;;4.3;;
15500;SDS011;7852;52.228;5.990;2023-04-15T03:13:41;7.3;;;4.9;;
15500;SDS011;7852;52.228;5.990;2023-04-15T03:14:41;4.6;;;4.2;;
15500;SDS011;7852;52.228;5.990;2023-04-15T03:15:41;6.3;;;4.6;;
15500;SDS011;7852;52.228;5.990;2023-04-15T03:16:41;4.9;;;4;;
15500;SDS011;7852;52.228;5.990;2023-04-15T03:17:41;7;;;4.4;;
15500;SDS011;7852;52.228;5.990;2023-04-15T03:18:41;10.4;;;4.8;;
15500;SDS011;7852;52.228;5.990;2023-04-15T03:19:41;5.4;;;4.3;;
15500;SDS011;7852;52.228;5.990;2023-04-15T03:20:42;5.3;;;4.3;;
15500;SDS011;7852;52.228;5.990;2023-04-15T03:21:42;5.5;;;4.3;;
15500;SDS011;7852;52.228;5.990;2023-04-15T03:22:42;4.8;;;4;;
15500;SDS011;7852;52.228;5.990;2023-04-15T03:23:42;6.6;;;4.4;;
15500;SDS011;7852;52.228;5.990;2023-04-15T03:24:42;6.5;;;3.9;;
15500;SDS011;7852;52.228;5.990;2023-04-15T03:25:43;11.3;;;4.8;;
15500;SDS011;7852;52.228;5.990;2023-04-15T03:26:42;7.2;;;4.9;;
15500;SDS011;7852;52.228;5.990;2023-04-15T03:27:42;6.7;;;4.8;;
15500;SDS011;7852;52.228;5.990;2023-04-15T03:28:42;6.5;;;4.4;;
15500;SDS011;7852;52.228;5.990;2023-04-15T03:29:42;7.7;;;4.3;;
15500;SDS011;7852;52.228;5.990;2023-04-15T03:30:42;7.4;;;4.5;;
15500;SDS011;7852;52.228;5.990;2023-04-15T03:31:42;6.7;;;4.5;;
15500;SDS011;7852;52.228;5.990;2023-04-15T03:32:42;6.5;;;4.4;;
15500;SDS011;7852;52.228;5.990;2023-04-15T03:33:42;6;;;4.5;;
15500;SDS011;7852;52.228;5.990;2023-04-15T03:34:42;6.6;;;4.7;;
15500;SDS011;7852;52.228;5.990;2023-04-15T03:35:42;5.6;;;3.9;;
15500;SDS011;7852;52.228;5.990;2023-04-15T03:36:42;6.5;;;4.2;;
15500;SDS011;7852;52.228;5.990;2023-04-15T03:37:42;6.7;;;4.8;;
15500;SDS011;7852;52.228;5.990;2023-04-15T03:38:42;5.7;;;4.2;;
15500;SDS011;7852;52.228;5.990;2023-04-15T03:39:42;5.3;;;4.1;;
15500;SDS011;7852;52.228;5.990;2023-04-15T03:40:42;7.6;;;4.9;;
15500;SDS011;7852;52.228;5.990;2023-04-15T03:41:42;7.7;;;5;;
15500;SDS011;7852;52.228;5.990;2023-04-15T03:42:42;8;;;4.5;;
15500;SDS011;7852;52.228;5.990;2023-04-15T03:43:42;5.3;;;4.7;;
15500;SDS011;7852;52.228;5.990;2023-04-15T03:44:42;6.8;;;4.7;;
15500;SDS011;7852;52.228;5.990;2023-04-15T03:45:42;5.3;;;4.5;;
15500;SDS011;7852;52.228;5.990;2023-04-15T03:46:42;9.2;;;4.7;;
15500;SDS011;7852;52.228;5.990;2023-04-15T03:47:42;6.6;;;4;;
15500;SDS011;7852;52.228;5.990;2023-04-15T03:48:42;4.7;;;3.9;;
15500;SDS011;7852;52.228;5.990;2023-04-15T03:49:46;7.5;;;4.5;;
15500;SDS011;7852;52.228;5.990;2023-04-15T03:50:42;6.6;;;4.8;;
15500;SDS011;7852;52.228;5.990;2023-04-15T03:51:42;6.2;;;4.5;;
15500;SDS011;7852;52.228;5.990;2023-04-15T03:52:42;11.9;;;4.7;;
15500;SDS011;7852;52.228;5.990;2023-04-15T03:53:42;5.7;;;4.2;;
15500;SDS011;7852;52.228;5.990;2023-04-15T03:54:42;10.8;;;4.9;;
15500;SDS011;7852;52.228;5.990;2023-04-15T03:55:42;6.9;;;4.5;;
15500;SDS011;7852;52.228;5.990;2023-04-15T03:56:42;6;;;4.1;;
15500;SDS011;7852;52.228;5.990;2023-04-15T03:57:42;7.5;;;5.2;;
15500;SDS011;7852;52.228;5.990;2023-04-15T03:58:42;5.9;;;4.2;;
15500;SDS011;7852;52.228;5.990;2023-04-15T03:59:42;5.9;;;4.4;;
15500;SDS011;7852;52.228;5.990;2023-04-15T04:00:42;6.5;;;4.8;;
15500;SDS011;7852;52.228;5.990;2023-04-15T04:01:42;5.3;;;4.3;;
15500;SDS011;7852;52.228;5.990;2023-04-15T04:02:42;6.8;;;5;;
15500;SDS011;7852;52.228;5.990;2023-04-15T04:03:42;8.6;;;4.7;;
15500;SDS011;7852;52.228;5.990;2023-04-15T04:04:42;5.5;;;4.6;;
15500;SDS011;7852;52.228;5.990;2023-04-15T04:05:42;5.6;;;4.8;;
15500;SDS011;7852;52.228;5.990;2023-04-15T04:06:42;5.9;;;4.9;;
15500;SDS011;7852;52.228;5.990;2023-04-15T04:07:42;7.3;;;4.6;;
15500;SDS011;7852;52.228;5.990;2023-04-15T04:08:42;6.1;;;4.6;;
15500;SDS011;7852;52.228;5.990;2023-04-15T04:09:42;8.9;;;4.8;;
15500;SDS011;7852;52.228;5.990;2023-04-15T04:10:42;5.4;;;4.3;;
15500;SDS011;7852;52.228;5.990;2023-04-15T04:11:42;5.6;;;4.4;;
15500;SDS011;7852;52.228;5.990;2023-04-15T04:12:42;6.1;;;5.1;;
15500;SDS011;7852;52.228;5.990;2023-04-15T04:13:42;8.7;;;4.9;;
15500;SDS011;7852;52.228;5.990;2023-04-15T04:14:42;8.9;;;5.3;;
15500;SDS011;7852;52.228;5.990;2023-04-15T04:15:42;8.8;;;4.9;;
15500;SDS011;7852;52.228;5.990;2023-04-15T04:16:42;6.6;;;4.7;;
15500;SDS011;7852;52.228;5.990;2023-04-15T04:17:42;6.1;;;4.7;;
15500;SDS011;7852;52.228;5.990;2023-04-15T04:18:42;7.4;;;4.9;;
15500;SDS011;7852;52.228;5.990;2023-04-15T04:19:42;8.4;;;5.6;;
15500;SDS011;7852;52.228;5.990;2023-04-15T04:20:42;6.2;;;4.6;;
15500;SDS011;7852;52.228;5.990;2023-04-15T04:21:42;13.4;;;5.9;;
15500;SDS011;7852;52.228;5.990;2023-04-15T04:22:42;7.7;;;5.7;;
15500;SDS011;7852;52.228;5.990;2023-04-15T04:23:42;6.9;;;4.7;;
15500;SDS011;7852;52.228;5.990;2023-04-15T04:24:42;7.2;;;5.3;;
15500;SDS011;7852;52.228;5.990;2023-04-15T04:25:42;11.1;;;5.7;;
15500;SDS011;7852;52.228;5.990;2023-04-15T04:26:42;8.1;;;5.1;;
15500;SDS011;7852;52.228;5.990;2023-04-15T04:27:42;6.9;;;5;;
15500;SDS011;7852;52.228;5.990;2023-04-15T04:28:42;5.7;;;5;;
15500;SDS011;7852;52.228;5.990;2023-04-15T04:29:42;6.9;;;5.2;;
15500;SDS011;7852;52.228;5.990;2023-04-15T04:30:42;7.9;;;5.3;;
15500;SDS011;7852;52.228;5.990;2023-04-15T04:31:42;6.2;;;5.4;;
15500;SDS011;7852;52.228;5.990;2023-04-15T04:32:42;8.9;;;5.2;;
15500;SDS011;7852;52.228;5.990;2023-04-15T04:33:42;6.5;;;4.8;;
15500;SDS011;7852;52.228;5.990;2023-04-15T04:34:42;5.9;;;5.1;;
15500;SDS011;7852;52.228;5.990;2023-04-15T04:35:42;9.7;;;5.4;;
15500;SDS011;7852;52.228;5.990;2023-04-15T04:36:42;8.9;;;5.2;;
15500;SDS011;7852;52.228;5.990;2023-04-15T04:37:42;8;;;5.5;;
15500;SDS011;7852;52.228;5.990;2023-04-15T04:38:42;5.7;;;4.7;;
15500;SDS011;7852;52.228;5.990;2023-04-15T04:39:42;8.8;;;4.8;;
15500;SDS011;7852;52.228;5.990;2023-04-15T04:40:42;6.9;;;5.1;;
15500;SDS011;7852;52.228;5.990;2023-04-15T04:41:42;5.8;;;4.9;;
15500;SDS011;7852;52.228;5.990;2023-04-15T04:42:42;5.9;;;4.6;;
15500;SDS011;7852;52.228;5.990;2023-04-15T04:43:42;8.6;;;5.3;;
15500;SDS011;7852;52.228;5.990;2023-04-15T04:44:42;7.6;;;5.2;;
15500;SDS011;7852;52.228;5.990;2023-04-15T04:45:42;6.5;;;4.9;;
15500;SDS011;7852;52.228;5.990;2023-04-15T04:46:42;9.5;;;6.4;;
15500;SDS011;7852;52.228;5.990;2023-04-15T04:47:42;9.4;;;5.9;;
15500;SDS011;7852;52.228;5.990;2023-04-15T04:48:42;9.2;;;5.8;;
15500;SDS011;7852;52.228;5.990;2023-04-15T04:49:42;8.9;;;5.8;;
15500;SDS011;7852;52.228;5.990;2023-04-15T04:50:42;6.6;;;4.9;;
15500;SDS011;7852;52.228;5.990;2023-04-15T04:51:42;8.6;;;5.9;;
15500;SDS011;7852;52.228;5.990;2023-04-15T04:52:42;8;;;5.5;;
15500;SDS011;7852;52.228;5.990;2023-04-15T04:53:42;9.6;;;5.5;;
15500;SDS011;7852;52.228;5.990;2023-04-15T04:54:42;9.7;;;5.9;;
15500;SDS011;7852;52.228;5.990;2023-04-15T04:55:42;8.5;;;6.1;;
15500;SDS011;7852;52.228;5.990;2023-04-15T04:56:42;7.2;;;5.2;;
15500;SDS011;7852;52.228;5.990;2023-04-15T04:57:42;10.1;;;5.9;;
15500;SDS011;7852;52.228;5.990;2023-04-15T04:58:42;8.4;;;6.2;;
15500;SDS011;7852;52.228;5.990;2023-04-15T04:59:42;7.4;;;5.5;;
15500;SDS011;7852;52.228;5.990;2023-04-15T05:00:42;11;;;6.4;;
15500;SDS011;7852;52.228;5.990;2023-04-15T05:01:42;9.4;;;6.4;;
15500;SDS011;7852;52.228;5.990;2023-04-15T05:02:42;9.1;;;5.7;;
15500;SDS011;7852;52.228;5.990;2023-04-15T05:03:42;9.8;;;5.9;;
15500;SDS011;7852;52.228;5.990;2023-04-15T05:04:42;9.1;;;6.6;;
15500;SDS011;7852;52.228;5.990;2023-04-15T05:05:42;8.3;;;5.4;;
15500;SDS011;7852;52.228;5.990;2023-04-15T05:06:42;10.3;;;5.8;;
15500;SDS011;7852;52.228;5.990;2023-04-15T05:07:42;9.9;;;6.8;;
15500;SDS011;7852;52.228;5.990;2023-04-15T05:08:42;8.4;;;6.5;;
15500;SDS011;7852;52.228;5.990;2023-04-15T05:09:42;8.4;;;6;;
15500;SDS011;7852;52.228;5.990;2023-04-15T05:10:42;8.8;;;6.2;;
15500;SDS011;7852;52.228;5.990;2023-04-15T05:11:42;8.6;;;6.2;;
15500;SDS011;7852;52.228;5.990;2023-04-15T05:12:42;6.9;;;5.3;;
15500;SDS011;7852;52.228;5.990;2023-04-15T05:13:42;9.5;;;5.9;;
15500;SDS011;7852;52.228;5.990;2023-04-15T05:14:43;10.8;;;6.3;;
15500;SDS011;7852;52.228;5.990;2023-04-15T05:15:43;6.5;;;5.1;;
15500;SDS011;7852;52.228;5.990;2023-04-15T05:16:43;7;;;5.8;;
15500;SDS011;7852;52.228;5.990;2023-04-15T05:17:43;8.4;;;5.6;;
15500;SDS011;7852;52.228;5.990;2023-04-15T05:18:43;8.6;;;5.8;;
15500;SDS011;7852;52.228;5.990;2023-04-15T05:19:43;9.7;;;5.8;;
15500;SDS011;7852;52.228;5.990;2023-04-15T05:20:43;7;;;5.5;;
15500;SDS011;7852;52.228;5.990;2023-04-15T05:21:43;6.9;;;5.9;;
15500;SDS011;7852;52.228;5.990;2023-04-15T05:22:43;11;;;6;;
15500;SDS011;7852;52.228;5.990;2023-04-15T05:23:43;9.1;;;6.6;;
15500;SDS011;7852;52.228;5.990;2023-04-15T05:24:43;8.1;;;5.9;;
15500;SDS011;7852;52.228;5.990;2023-04-15T05:25:43;7.1;;;6.1;;
15500;SDS011;7852;52.228;5.990;2023-04-15T05:26:43;12.5;;;6.9;;
15500;SDS011;7852;52.228;5.990;2023-04-15T05:27:43;9.1;;;6.5;;
15500;SDS011;7852;52.228;5.990;2023-04-15T05:28:43;8.6;;;6.1;;
15500;SDS011;7852;52.228;5.990;2023-04-15T05:29:43;10.5;;;7.1;;
15500;SDS011;7852;52.228;5.990;2023-04-15T05:30:43;8.8;;;6.1;;
15500;SDS011;7852;52.228;5.990;2023-04-15T05:31:43;10.1;;;6.7;;
15500;SDS011;7852;52.228;5.990;2023-04-15T05:32:43;11;;;6.6;;
15500;SDS011;7852;52.228;5.990;2023-04-15T05:33:43;9.5;;;5.9;;
15500;SDS011;7852;52.228;5.990;2023-04-15T05:34:43;10.3;;;6.8;;
15500;SDS011;7852;52.228;5.990;2023-04-15T05:35:43;8.8;;;6.4;;
15500;SDS011;7852;52.228;5.990;2023-04-15T05:36:43;10.5;;;6.1;;
15500;SDS011;7852;52.228;5.990;2023-04-15T05:37:43;11.6;;;6.8;;
15500;SDS011;7852;52.228;5.990;2023-04-15T05:38:43;8.5;;;6.4;;
15500;SDS011;7852;52.228;5.990;2023-04-15T05:39:43;12.3;;;6.5;;
15500;SDS011;7852;52.228;5.990;2023-04-15T05:40:43;10.4;;;7;;
15500;SDS011;7852;52.228;5.990;2023-04-15T05:41:43;10.2;;;7.2;;
15500;SDS011;7852;52.228;5.990;2023-04-15T05:42:43;11.2;;;7.2;;
15500;SDS011;7852;52.228;5.990;2023-04-15T05:43:43;8.4;;;6.6;;
15500;SDS011;7852;52.228;5.990;2023-04-15T05:44:43;9.7;;;7.3;;
15500;SDS011;7852;52.228;5.990;2023-04-15T05:45:43;9.3;;;6.8;;
15500;SDS011;7852;52.228;5.990;2023-04-15T05:46:43;9.8;;;6.8;;
15500;SDS011;7852;52.228;5.990;2023-04-15T05:47:43;10;;;7;;
15500;SDS011;7852;52.228;5.990;2023-04-15T05:48:43;8.2;;;6.6;;
15500;SDS011;7852;52.228;5.990;2023-04-15T05:49:43;9.6;;;6.7;;
15500;SDS011;7852;52.228;5.990;2023-04-15T05:50:43;10.4;;;6.6;;
15500;SDS011;7852;52.228;5.990;2023-04-15T05:51:43;9.2;;;6.6;;
15500;SDS011;7852;52.228;5.990;2023-04-15T05:52:43;14.4;;;7.5;;
15500;SDS011;7852;52.228;5.990;2023-04-15T05:53:43;11.5;;;7.9;;
15500;SDS011;7852;52.228;5.990;2023-04-15T05:54:43;12.1;;;7.2;;
15500;SDS011;7852;52.228;5.990;2023-04-15T05:55:43;9.8;;;6.8;;
15500;SDS011;7852;52.228;5.990;2023-04-15T05:56:43;8.4;;;6.7;;
15500;SDS011;7852;52.228;5.990;2023-04-15T05:57:43;8.4;;;6.6;;
15500;SDS011;7852;52.228;5.990;2023-04-15T05:58:43;11.2;;;7.2;;
15500;SDS011;7852;52.228;5.990;2023-04-15T05:59:43;9.9;;;7.3;;
15500;SDS011;7852;52.228;5.990;2023-04-15T06:00:43;9.7;;;7.7;;
15500;SDS011;7852;52.228;5.990;2023-04-15T06:01:43;11.2;;;7.1;;
15500;SDS011;7852;52.228;5.990;2023-04-15T06:02:43;12.1;;;7.2;;
15500;SDS011;7852;52.228;5.990;2023-04-15T06:03:43;9.2;;;7.1;;
15500;SDS011;7852;52.228;5.990;2023-04-15T06:04:43;10.7;;;7.7;;
15500;SDS011;7852;52.228;5.990;2023-04-15T06:05:43;9.8;;;7.2;;
15500;SDS011;7852;52.228;5.990;2023-04-15T06:06:43;11.2;;;7.4;;
15500;SDS011;7852;52.228;5.990;2023-04-15T06:07:43;10.2;;;7.3;;
15500;SDS011;7852;52.228;5.990;2023-04-15T06:08:43;14.4;;;7.8;;
15500;SDS011;7852;52.228;5.990;2023-04-15T06:09:43;9.6;;;7.4;;
15500;SDS011;7852;52.228;5.990;2023-04-15T06:10:43;10.3;;;7.9;;
15500;SDS011;7852;52.228;5.990;2023-04-15T06:11:43;12.3;;;8.3;;
15500;SDS011;7852;52.228;5.990;2023-04-15T06:12:43;11.1;;;7.7;;
15500;SDS011;7852;52.228;5.990;2023-04-15T06:13:43;9.7;;;7.7;;
15500;SDS011;7852;52.228;5.990;2023-04-15T06:14:43;7.9;;;6.9;;
15500;SDS011;7852;52.228;5.990;2023-04-15T06:15:43;10.5;;;7.4;;
15500;SDS011;7852;52.228;5.990;2023-04-15T06:16:43;12.4;;;8.4;;
15500;SDS011;7852;52.228;5.990;2023-04-15T06:17:43;12.2;;;7.9;;
15500;SDS011;7852;52.228;5.990;2023-04-15T06:18:43;8.3;;;7;;
15500;SDS011;7852;52.228;5.990;2023-04-15T06:19:43;11.8;;;8;;
15500;SDS011;7852;52.228;5.990;2023-04-15T06:20:43;13.1;;;7.6;;